CZUM/ZUM METAR and TAF weather

Enter ICAO airport designator
Station Type Date Time Source
CZUM METAR 2022/08/16 19:00 UTC NOAA

CZUM 161900Z AUTO 32011KT 290V350 9SM CLR 21/04 A3024 RMK SLP252 DENSITY ALT 2100FT


Station Type Date Time Source
CZUM Decoded METAR 2022/08/16 19:00 UTC NOAA

Churchill Falls, Nfld., Canada (CZUM) 53-33N 064-06W 440M
Aug 16, 2022 - 03:00 PM EDT / 2022.08.16 1900 UTC
Wind: from the NW (320 degrees) at 13 MPH (11 KT) (direction variable):0
Visibility: 9 mile(s):0
Sky conditions: clear
Temperature: 69 F (21 C)
Dew Point: 39 F (4 C)
Relative Humidity: 32%
Pressure (altimeter): 30.24 in. Hg (1024 hPa)
ob: CZUM 161900Z AUTO 32011KT 290V350 9SM CLR 21/04 A3024 RMK SLP252 DENSITY ALT 2100FT
cycle: 19

Station Type Date Time Source
CZUM TAF 2022/08/16 14:42 UTC NOAA

TAF TAF CZUM 161340Z 1614/1702 30009KT P6SM SKC
BECMG 1700/1702 VRB03KT
RMK FCST BASED ON AUTO OBS. NXT FCST BY 162000Z

Example: see airport list